createdAt,value
2023-06-16T00:01:05.963Z,19.31
2023-06-16T00:03:37.130Z,19.28
2023-06-16T00:06:14.247Z,19.29
2023-06-16T00:08:47.962Z,19.33
2023-06-16T00:11:17.092Z,19.30
2023-06-16T00:13:47.151Z,19.28
2023-06-16T00:16:21.126Z,19.25
2023-06-16T00:18:54.454Z,19.27
2023-06-16T00:21:28.669Z,19.26
2023-06-16T00:23:58.530Z,19.25
2023-06-16T00:26:28.048Z,19.23
2023-06-16T00:28:56.037Z,19.23
2023-06-16T00:31:27.001Z,19.21
2023-06-16T00:33:56.467Z,19.18
2023-06-16T00:36:24.818Z,19.13
2023-06-16T00:38:52.924Z,19.10
2023-06-16T00:41:21.221Z,19.07
2023-06-16T00:43:49.656Z,19.03
2023-06-16T00:46:29.991Z,19.08
2023-06-16T00:48:58.852Z,19.09
2023-06-16T00:51:30.755Z,19.04
2023-06-16T00:54:24.970Z,19.06
2023-06-16T00:56:53.312Z,19.03
2023-06-16T00:59:26.072Z,18.95
2023-06-16T01:01:56.474Z,18.95
2023-06-16T01:04:27.960Z,18.89
2023-06-16T01:07:11.302Z,18.96
2023-06-16T01:09:54.895Z,18.99
2023-06-16T01:12:32.153Z,18.97
2023-06-16T01:15:12.536Z,18.93
2023-06-16T01:17:45.837Z,19.00
2023-06-16T01:20:20.631Z,18.96
2023-06-16T01:23:17.042Z,18.94
2023-06-16T01:25:45.908Z,18.93
2023-06-16T01:28:14.794Z,18.92
2023-06-16T01:30:44.054Z,18.90
2023-06-16T01:33:13.139Z,18.94
2023-06-16T01:35:42.489Z,18.94
2023-06-16T01:38:10.838Z,18.97
2023-06-16T01:40:39.610Z,18.98
2023-06-16T01:43:08.707Z,18.94
2023-06-16T01:45:37.078Z,19.01
2023-06-16T01:48:05.628Z,18.97
2023-06-16T01:50:37.398Z,18.94
2023-06-16T01:53:05.854Z,19.01
2023-06-16T01:55:33.803Z,19.10
2023-06-16T01:58:02.239Z,19.16
2023-06-16T02:00:40.228Z,19.19
2023-06-16T02:03:23.600Z,19.33
2023-06-16T02:05:53.200Z,19.85
2023-06-16T02:08:23.672Z,20.33
2023-06-16T02:10:52.033Z,20.24
2023-06-16T02:13:20.593Z,20.13
2023-06-16T02:15:49.111Z,20.02
2023-06-16T02:18:17.274Z,20.07
2023-06-16T02:20:46.646Z,20.17
2023-06-16T02:23:15.139Z,20.96
2023-06-16T02:25:43.839Z,22.46
2023-06-16T02:28:11.997Z,24.26
2023-06-16T02:30:40.747Z,25.74
2023-06-16T02:33:09.596Z,27.28
2023-06-16T02:35:37.930Z,28.15
2023-06-16T02:38:06.039Z,29.07
2023-06-16T02:40:34.396Z,30.02
2023-06-16T02:43:02.889Z,30.35
2023-06-16T02:45:31.307Z,30.87
2023-06-16T02:47:59.779Z,31.64
2023-06-16T02:50:30.362Z,32.57
2023-06-16T02:52:59.627Z,33.14
2023-06-16T02:55:27.915Z,33.72
2023-06-16T02:57:55.745Z,34.20
2023-06-16T03:00:24.129Z,34.46
2023-06-16T03:02:54.829Z,34.89
2023-06-16T03:05:24.946Z,35.21
2023-06-16T03:07:53.901Z,35.48
2023-06-16T03:10:22.174Z,35.89
2023-06-16T03:12:50.290Z,35.88
2023-06-16T03:15:18.656Z,36.83
2023-06-16T03:17:48.804Z,37.36
2023-06-16T03:20:17.379Z,38.16
2023-06-16T03:22:46.220Z,38.57
2023-06-16T03:25:14.294Z,37.91
2023-06-16T03:27:43.262Z,37.48
2023-06-16T03:30:11.676Z,36.99
2023-06-16T03:32:40.078Z,37.34
2023-06-16T03:35:08.753Z,37.44
2023-06-16T03:37:37.905Z,37.77
2023-06-16T03:40:07.806Z,38.02
2023-06-16T03:42:36.774Z,38.72
2023-06-16T03:45:07.035Z,38.66
2023-06-16T03:47:35.395Z,37.46
2023-06-16T03:50:04.698Z,37.84
2023-06-16T03:52:33.118Z,38.19
2023-06-16T03:55:01.820Z,38.86
2023-06-16T03:57:30.213Z,40.26
2023-06-16T03:59:58.243Z,41.34
2023-06-16T04:02:27.531Z,41.67
2023-06-16T04:04:57.409Z,40.48
2023-06-16T04:07:26.930Z,40.31
2023-06-16T04:09:55.357Z,40.27
2023-06-16T04:12:24.239Z,40.89
2023-06-16T04:14:52.607Z,39.96
2023-06-16T04:17:21.107Z,39.71
2023-06-16T04:19:49.439Z,40.72
2023-06-16T04:22:17.953Z,41.12
2023-06-16T04:24:46.626Z,41.69
2023-06-16T04:27:14.656Z,40.47
2023-06-16T04:29:47.222Z,40.00
2023-06-16T04:32:15.568Z,40.25
2023-06-16T04:34:45.513Z,40.56
2023-06-16T04:37:15.205Z,41.24
2023-06-16T04:39:43.279Z,41.18
2023-06-16T04:42:11.641Z,40.29
2023-06-16T04:44:41.688Z,40.50
2023-06-16T04:47:11.164Z,41.35
2023-06-16T04:49:39.348Z,40.61
2023-06-16T04:52:11.147Z,40.88
2023-06-16T04:54:39.371Z,42.04
2023-06-16T04:57:09.163Z,42.40
2023-06-16T04:59:41.742Z,42.35
2023-06-16T05:02:10.229Z,42.22
2023-06-16T05:04:44.265Z,42.03
2023-06-16T05:07:13.305Z,42.18
2023-06-16T05:09:41.919Z,42.13
2023-06-16T05:12:10.624Z,42.56
2023-06-16T05:14:41.312Z,43.33
2023-06-16T05:17:09.569Z,42.12
2023-06-16T05:19:38.280Z,42.75
2023-06-16T05:22:06.765Z,42.92
2023-06-16T05:24:35.188Z,43.21
2023-06-16T05:27:03.969Z,43.91
2023-06-16T05:29:31.975Z,44.21
2023-06-16T05:32:00.565Z,44.61
2023-06-16T05:34:29.084Z,44.21
2023-06-16T05:36:57.360Z,44.36
2023-06-16T05:39:25.874Z,43.31
2023-06-16T05:41:54.279Z,43.22
2023-06-16T05:44:22.776Z,44.21
2023-06-16T05:46:51.165Z,43.64
2023-06-16T05:49:19.540Z,42.39
2023-06-16T05:51:47.463Z,42.82
2023-06-16T05:54:15.411Z,43.30
2023-06-16T05:56:43.781Z,43.63
2023-06-16T05:59:12.267Z,43.30
2023-06-16T06:01:40.555Z,43.15
2023-06-16T06:04:15.414Z,42.19
2023-06-16T06:06:43.785Z,41.12
2023-06-16T06:09:11.675Z,41.28
2023-06-16T06:11:41.009Z,41.08
2023-06-16T06:14:09.083Z,40.69
2023-06-16T06:16:37.602Z,41.31
2023-06-16T06:19:05.887Z,41.27
2023-06-16T06:21:35.323Z,40.81
2023-06-16T06:24:04.142Z,40.97
2023-06-16T06:26:32.771Z,40.58
2023-06-16T06:29:01.298Z,40.29
2023-06-16T06:31:29.839Z,40.28
2023-06-16T06:33:58.128Z,40.06
2023-06-16T06:36:28.563Z,39.41
2023-06-16T06:38:57.487Z,39.14
2023-06-16T06:41:26.657Z,39.99
2023-06-16T06:43:55.071Z,39.59
2023-06-16T06:46:23.302Z,40.22
2023-06-16T06:48:52.886Z,40.51
2023-06-16T06:51:21.667Z,40.65
2023-06-16T06:53:49.577Z,40.22
2023-06-16T06:56:19.710Z,39.43
2023-06-16T06:58:48.063Z,39.41
2023-06-16T07:01:18.946Z,39.62
2023-06-16T07:03:47.914Z,39.25
2023-06-16T07:06:16.804Z,38.89
2023-06-16T07:08:45.074Z,39.25
2023-06-16T07:11:13.169Z,38.28
2023-06-16T07:13:41.544Z,37.75
2023-06-16T07:16:09.865Z,37.04
2023-06-16T07:18:38.663Z,37.58
2023-06-16T07:21:07.296Z,36.96
2023-06-16T07:23:36.171Z,36.38
2023-06-16T07:26:04.604Z,36.19
2023-06-16T07:28:33.069Z,35.14
2023-06-16T07:31:01.852Z,33.30
2023-06-16T07:33:30.658Z,31.53
2023-06-16T07:35:58.437Z,29.95
2023-06-16T07:38:27.113Z,29.17
2023-06-16T07:40:55.411Z,28.51
2023-06-16T07:43:23.682Z,28.09
2023-06-16T07:45:52.985Z,27.88
2023-06-16T07:48:21.007Z,27.95
2023-06-16T07:50:50.186Z,27.87
2023-06-16T07:53:18.290Z,27.64
2023-06-16T07:55:46.159Z,27.25
2023-06-16T07:58:14.368Z,27.27
2023-06-16T08:00:44.214Z,27.35
2023-06-16T08:03:12.890Z,27.29
2023-06-16T08:05:44.309Z,27.39
2023-06-16T08:08:13.153Z,27.58
2023-06-16T08:10:44.643Z,27.73
2023-06-16T08:13:12.636Z,27.78
2023-06-16T08:15:41.283Z,27.84
2023-06-16T08:18:09.492Z,27.83
2023-06-16T08:20:39.332Z,27.68
2023-06-16T08:23:07.296Z,27.67
2023-06-16T08:25:36.544Z,27.68
2023-06-16T08:28:06.785Z,27.81
2023-06-16T08:30:38.184Z,27.76
2023-06-16T08:33:19.195Z,27.75
2023-06-16T08:35:47.489Z,27.61
2023-06-16T08:38:16.288Z,27.69
2023-06-16T08:40:45.022Z,27.71
2023-06-16T08:43:15.562Z,27.70
2023-06-16T08:45:46.908Z,27.89
2023-06-16T08:48:15.274Z,28.05
2023-06-16T08:50:43.449Z,28.24
2023-06-16T08:53:16.950Z,28.18
2023-06-16T08:55:46.537Z,28.55
2023-06-16T08:58:16.911Z,28.54
2023-06-16T09:00:45.427Z,28.59
2023-06-16T09:03:15.325Z,28.46
2023-06-16T09:05:43.609Z,28.42
2023-06-16T09:08:15.082Z,28.71
2023-06-16T09:10:45.426Z,28.81
2023-06-16T09:13:16.032Z,29.07
2023-06-16T09:16:10.918Z,29.09
2023-06-16T09:18:42.137Z,29.10
2023-06-16T09:21:11.075Z,29.07
2023-06-16T09:23:40.552Z,29.00
2023-06-16T09:26:15.351Z,28.88
2023-06-16T09:28:45.750Z,28.72
2023-06-16T09:31:17.046Z,28.67
2023-06-16T09:33:45.262Z,28.80
2023-06-16T09:36:28.874Z,28.87
2023-06-16T09:38:57.102Z,28.95
2023-06-16T09:41:24.916Z,29.20
2023-06-16T09:43:53.168Z,29.21
2023-06-16T09:46:21.486Z,29.32
2023-06-16T09:48:50.774Z,29.52
2023-06-16T09:51:24.620Z,29.41
2023-06-16T09:53:55.946Z,29.39
2023-06-16T09:56:26.909Z,29.43
2023-06-16T09:58:56.442Z,29.60
2023-06-16T10:01:25.722Z,29.65
2023-06-16T10:03:56.477Z,29.79
2023-06-16T10:06:26.517Z,29.60
2023-06-16T10:08:57.750Z,29.87
2023-06-16T10:11:25.938Z,30.43
2023-06-16T10:13:59.350Z,30.94
2023-06-16T10:16:30.107Z,30.53
2023-06-16T10:19:00.731Z,30.17
2023-06-16T10:21:32.092Z,30.06
2023-06-16T10:24:05.470Z,29.90
2023-06-16T10:27:01.088Z,29.60
2023-06-16T10:29:30.563Z,29.47
2023-06-16T10:32:12.100Z,29.78
2023-06-16T10:35:00.302Z,30.64
2023-06-16T10:37:35.034Z,30.79
2023-06-16T10:40:07.881Z,30.76
2023-06-16T10:42:36.959Z,30.35
2023-06-16T10:45:31.013Z,30.14
2023-06-16T10:48:00.085Z,30.33
2023-06-16T10:50:44.149Z,30.23
2023-06-16T10:53:16.704Z,29.87
2023-06-16T10:55:46.622Z,29.63
2023-06-16T10:58:17.741Z,29.32
2023-06-16T11:00:59.137Z,29.19
2023-06-16T11:03:46.814Z,29.11
2023-06-16T11:06:15.088Z,28.75
2023-06-16T11:08:54.474Z,28.77
2023-06-16T11:11:23.531Z,29.10
2023-06-16T11:13:52.164Z,29.43
2023-06-16T11:16:20.431Z,29.69
2023-06-16T11:18:50.263Z,29.70
2023-06-16T11:21:19.442Z,30.05
2023-06-16T11:23:47.426Z,29.98
2023-06-16T11:26:17.205Z,30.08
2023-06-16T11:28:45.424Z,29.93
2023-06-16T11:31:16.562Z,29.83
2023-06-16T11:33:45.193Z,29.67
2023-06-16T11:36:22.383Z,29.77
2023-06-16T11:38:56.882Z,29.32
2023-06-16T11:41:29.028Z,29.13
2023-06-16T11:44:00.375Z,29.50
2023-06-16T11:46:29.995Z,29.61
2023-06-16T11:48:59.766Z,29.93
2023-06-16T11:51:29.330Z,29.83
2023-06-16T11:53:57.984Z,30.04
2023-06-16T11:56:25.910Z,29.88
2023-06-16T11:58:55.352Z,30.19
2023-06-16T12:01:26.115Z,30.43
2023-06-16T12:04:03.703Z,30.58
2023-06-16T12:06:37.731Z,30.55
2023-06-16T12:09:05.839Z,30.44
2023-06-16T12:11:36.254Z,30.65
2023-06-16T12:14:05.151Z,31.02
2023-06-16T12:16:33.997Z,31.13
2023-06-16T12:19:02.268Z,31.11
2023-06-16T12:21:32.022Z,31.12
2023-06-16T12:24:01.689Z,30.73
2023-06-16T12:26:31.209Z,30.28
2023-06-16T12:29:05.471Z,30.07
2023-06-16T12:31:33.636Z,30.15
2023-06-16T12:34:02.032Z,30.29
2023-06-16T12:36:30.393Z,30.18
2023-06-16T12:39:00.464Z,30.41
2023-06-16T12:41:30.517Z,30.52
2023-06-16T12:43:58.771Z,30.79
2023-06-16T12:46:27.136Z,30.90
2023-06-16T12:48:55.742Z,31.14
2023-06-16T12:51:26.117Z,31.08
2023-06-16T12:53:54.451Z,30.99
2023-06-16T12:56:24.095Z,31.15
2023-06-16T12:58:52.193Z,31.19
2023-06-16T13:01:22.292Z,31.11
2023-06-16T13:03:50.447Z,31.13
2023-06-16T13:06:20.329Z,31.13
2023-06-16T13:08:49.898Z,31.36
2023-06-16T13:11:19.284Z,31.28
2023-06-16T13:13:47.815Z,31.40
2023-06-16T13:16:18.555Z,31.65
2023-06-16T13:18:47.155Z,31.53
2023-06-16T13:21:15.392Z,31.31
2023-06-16T13:23:59.212Z,31.30
2023-06-16T13:26:27.627Z,31.33
2023-06-16T13:28:56.098Z,31.42
2023-06-16T13:31:24.528Z,31.20
2023-06-16T13:33:54.309Z,31.31
2023-06-16T13:36:28.590Z,31.06
2023-06-16T13:38:56.857Z,31.32
2023-06-16T13:41:29.529Z,31.47
2023-06-16T13:43:57.806Z,31.51
2023-06-16T13:46:26.424Z,31.25
2023-06-16T13:48:54.969Z,31.01
2023-06-16T13:51:23.383Z,31.03
2023-06-16T13:53:52.341Z,30.78
2023-06-16T13:56:22.122Z,30.69
2023-06-16T13:58:50.175Z,30.54
2023-06-16T14:01:18.354Z,30.26
2023-06-16T14:03:48.042Z,30.10
2023-06-16T14:06:17.017Z,30.00
2023-06-16T14:08:46.796Z,30.06
2023-06-16T14:11:19.793Z,30.19
2023-06-16T14:13:50.053Z,30.05
2023-06-16T14:16:19.639Z,29.99
2023-06-16T14:18:48.670Z,29.96
2023-06-16T14:21:20.694Z,30.01
2023-06-16T14:23:51.486Z,30.13
2023-06-16T14:26:20.061Z,30.12
2023-06-16T14:28:50.083Z,29.98
2023-06-16T14:31:18.680Z,29.60
2023-06-16T14:33:48.056Z,29.41
2023-06-16T14:36:18.439Z,29.55
2023-06-16T14:38:46.312Z,29.71
2023-06-16T14:41:14.658Z,29.82
2023-06-16T14:43:42.895Z,29.90
2023-06-16T14:46:11.150Z,30.17
2023-06-16T14:48:40.113Z,30.35
2023-06-16T14:51:08.139Z,30.32
2023-06-16T14:53:37.073Z,30.50
2023-06-16T14:56:05.443Z,30.51
2023-06-16T14:58:34.129Z,30.69
2023-06-16T15:01:02.607Z,30.69
2023-06-16T15:03:31.389Z,30.70
2023-06-16T15:05:59.845Z,30.78
2023-06-16T15:08:28.147Z,30.76
2023-06-16T15:10:56.327Z,30.85
2023-06-16T15:13:25.767Z,31.05
2023-06-16T15:15:56.991Z,31.12
2023-06-16T15:18:25.537Z,30.92
2023-06-16T15:20:54.249Z,30.81
2023-06-16T15:23:23.634Z,30.58
2023-06-16T15:25:53.027Z,30.16
2023-06-16T15:28:21.543Z,29.97
2023-06-16T15:30:49.745Z,29.55
2023-06-16T15:33:17.733Z,29.30
2023-06-16T15:35:45.767Z,29.11
2023-06-16T15:38:13.827Z,29.01
2023-06-16T15:40:44.028Z,28.99
2023-06-16T15:43:13.000Z,29.08
2023-06-16T15:45:41.728Z,29.06
2023-06-16T15:48:09.802Z,28.90
2023-06-16T15:50:38.117Z,28.76
2023-06-16T15:53:09.469Z,28.68
2023-06-16T15:55:38.727Z,28.44
2023-06-16T15:58:08.240Z,28.19
2023-06-16T16:00:36.822Z,27.95
2023-06-16T16:03:07.936Z,27.79
2023-06-16T16:05:38.481Z,27.72
2023-06-16T16:08:07.375Z,27.66
2023-06-16T16:10:36.204Z,27.51
2023-06-16T16:13:04.737Z,27.46
2023-06-16T16:15:34.342Z,27.37
2023-06-16T16:18:03.147Z,27.34
2023-06-16T16:20:31.422Z,27.29
2023-06-16T16:23:00.478Z,27.26
2023-06-16T16:25:29.596Z,27.23
2023-06-16T16:27:58.219Z,27.30
2023-06-16T16:30:27.652Z,27.39
2023-06-16T16:32:56.353Z,27.43
2023-06-16T16:35:24.809Z,27.52
2023-06-16T16:37:52.632Z,27.57
2023-06-16T16:40:22.277Z,27.60
2023-06-16T16:42:50.633Z,27.58
2023-06-16T16:45:18.847Z,27.57
2023-06-16T16:47:46.886Z,27.57
2023-06-16T16:50:15.397Z,27.48
2023-06-16T16:52:43.633Z,27.44
2023-06-16T16:55:22.286Z,27.36
2023-06-16T16:57:58.426Z,27.26
2023-06-16T17:00:26.601Z,27.20
2023-06-16T17:02:54.938Z,27.11
2023-06-16T17:05:23.077Z,27.04
2023-06-16T17:07:51.840Z,26.98
2023-06-16T17:10:20.434Z,26.88
2023-06-16T17:12:49.624Z,26.77
2023-06-16T17:15:20.534Z,26.64
2023-06-16T17:17:50.790Z,26.57
2023-06-16T17:20:19.538Z,26.45
2023-06-16T17:22:48.848Z,26.31
2023-06-16T17:25:17.167Z,26.16
2023-06-16T17:27:58.603Z,26.07
2023-06-16T17:30:28.898Z,25.96
2023-06-16T17:33:00.627Z,25.83
2023-06-16T17:35:31.207Z,25.71
2023-06-16T17:38:00.290Z,25.57
2023-06-16T17:40:33.457Z,25.48
2023-06-16T17:43:06.093Z,25.41
2023-06-16T17:45:34.282Z,25.36
2023-06-16T17:48:02.772Z,25.31
2023-06-16T17:50:31.801Z,25.20
2023-06-16T17:53:02.516Z,25.13
2023-06-16T17:55:30.985Z,25.05
2023-06-16T17:57:59.745Z,24.98
2023-06-16T18:00:28.583Z,24.86
2023-06-16T18:02:57.073Z,24.78
2023-06-16T18:05:25.269Z,24.53
2023-06-16T18:07:54.392Z,24.31
2023-06-16T18:10:23.274Z,24.21
2023-06-16T18:12:52.403Z,24.07
2023-06-16T18:15:22.243Z,23.94
2023-06-16T18:17:51.212Z,23.83
2023-06-16T18:20:19.857Z,23.71
2023-06-16T18:22:49.529Z,23.61
2023-06-16T18:25:17.767Z,23.50
2023-06-16T18:27:47.531Z,23.37
2023-06-16T18:30:17.319Z,23.29
2023-06-16T18:32:46.118Z,23.21
2023-06-16T18:35:15.932Z,23.13
2023-06-16T18:37:48.248Z,23.08
2023-06-16T18:40:16.177Z,23.04
2023-06-16T18:42:44.953Z,22.98
2023-06-16T18:45:13.248Z,22.96
2023-06-16T18:47:42.660Z,22.97
2023-06-16T18:50:12.967Z,23.02
2023-06-16T18:52:41.424Z,23.01
2023-06-16T18:55:09.500Z,22.99
2023-06-16T18:57:38.556Z,22.96
2023-06-16T19:00:09.196Z,22.85
2023-06-16T19:02:39.510Z,22.77
2023-06-16T19:05:12.851Z,22.69
2023-06-16T19:07:41.193Z,22.61
2023-06-16T19:10:09.642Z,22.56
2023-06-16T19:12:44.636Z,22.47
2023-06-16T19:15:19.971Z,22.40
2023-06-16T19:17:48.802Z,22.32
2023-06-16T19:20:17.925Z,22.25
2023-06-16T19:22:47.191Z,22.16
2023-06-16T19:25:15.767Z,22.16
2023-06-16T19:27:48.472Z,22.13
2023-06-16T19:30:16.625Z,22.09
2023-06-16T19:32:47.209Z,22.07
2023-06-16T19:35:15.546Z,22.04
2023-06-16T19:37:43.835Z,22.01
2023-06-16T19:40:12.394Z,21.98
2023-06-16T19:42:43.562Z,21.96
2023-06-16T19:45:12.158Z,21.96
2023-06-16T19:47:40.894Z,21.92
2023-06-16T19:50:08.981Z,21.90
2023-06-16T19:52:37.098Z,21.91
2023-06-16T19:55:07.035Z,21.92
2023-06-16T19:57:35.631Z,21.89
2023-06-16T20:00:05.328Z,21.88
2023-06-16T20:02:34.313Z,21.83
2023-06-16T20:05:03.507Z,21.78
2023-06-16T20:07:34.288Z,21.71
2023-06-16T20:10:02.603Z,21.66
2023-06-16T20:12:32.645Z,21.62
2023-06-16T20:15:01.853Z,21.62
2023-06-16T20:17:30.585Z,21.59
2023-06-16T20:20:00.717Z,21.54
2023-06-16T20:22:29.025Z,21.46
2023-06-16T20:24:56.963Z,21.39
2023-06-16T20:27:25.367Z,21.33
2023-06-16T20:29:53.834Z,21.26
2023-06-16T20:32:23.111Z,21.20
2023-06-16T20:34:52.713Z,21.15
2023-06-16T20:37:21.706Z,21.13
2023-06-16T20:39:50.827Z,21.11
2023-06-16T20:42:19.230Z,21.06
2023-06-16T20:44:47.845Z,21.02
2023-06-16T20:47:16.066Z,20.96
2023-06-16T20:49:45.033Z,20.90
2023-06-16T20:52:13.464Z,20.78
2023-06-16T20:54:42.116Z,20.72
2023-06-16T20:57:10.386Z,20.68
2023-06-16T20:59:38.663Z,20.63
2023-06-16T21:02:07.553Z,20.59
2023-06-16T21:04:35.770Z,20.56
2023-06-16T21:07:04.357Z,20.62
2023-06-16T21:09:32.796Z,20.54
2023-06-16T21:12:01.263Z,20.51
2023-06-16T21:14:29.885Z,20.47
2023-06-16T21:16:58.020Z,20.44
2023-06-16T21:19:37.726Z,20.39
2023-06-16T21:22:09.973Z,20.34
2023-06-16T21:24:38.095Z,20.32
2023-06-16T21:27:06.555Z,20.27
2023-06-16T21:29:34.864Z,20.24
2023-06-16T21:32:03.665Z,20.22
2023-06-16T21:34:32.138Z,20.17
2023-06-16T21:37:03.601Z,20.12
2023-06-16T21:39:33.718Z,20.08
2023-06-16T21:42:01.827Z,20.05
2023-06-16T21:44:30.027Z,20.02
2023-06-16T21:46:58.947Z,19.97
2023-06-16T21:49:27.605Z,19.96
2023-06-16T21:51:55.954Z,19.91
2023-06-16T21:54:23.655Z,19.86
2023-06-16T21:56:52.224Z,19.84
2023-06-16T21:59:20.338Z,19.81
2023-06-16T22:01:54.320Z,19.77
2023-06-16T22:04:25.891Z,19.75
2023-06-16T22:06:54.814Z,19.74
2023-06-16T22:09:23.182Z,19.71
2023-06-16T22:11:51.334Z,19.74
2023-06-16T22:14:19.439Z,19.69
2023-06-16T22:16:48.429Z,19.77
2023-06-16T22:19:19.884Z,19.84
2023-06-16T22:21:48.371Z,19.88
2023-06-16T22:24:16.717Z,19.93
2023-06-16T22:26:45.056Z,19.87
2023-06-16T22:29:13.445Z,19.75
2023-06-16T22:31:42.641Z,19.67
2023-06-16T22:34:11.055Z,19.61
2023-06-16T22:36:39.961Z,19.57
2023-06-16T22:39:08.205Z,19.55
2023-06-16T22:41:36.859Z,19.53
2023-06-16T22:44:05.692Z,19.49
2023-06-16T22:46:34.305Z,19.44
2023-06-16T22:49:02.351Z,19.43
2023-06-16T22:51:30.572Z,19.40
2023-06-16T22:53:59.386Z,19.34
2023-06-16T22:59:11.401Z,19.32
2023-06-16T23:01:39.768Z,19.43
2023-06-16T23:04:08.516Z,19.43
2023-06-16T23:06:37.268Z,19.42
2023-06-16T23:09:06.993Z,19.44
2023-06-16T23:11:35.606Z,19.43
2023-06-16T23:14:04.025Z,19.38
2023-06-16T23:16:35.081Z,19.31
2023-06-16T23:19:03.314Z,19.36
2023-06-16T23:21:32.248Z,19.39
2023-06-16T23:24:00.539Z,19.40
2023-06-16T23:26:32.402Z,19.47
2023-06-16T23:29:01.537Z,19.47
2023-06-16T23:31:30.996Z,19.42
2023-06-16T23:33:59.251Z,19.43
2023-06-16T23:36:33.029Z,19.45
2023-06-16T23:39:02.205Z,19.50
2023-06-16T23:41:30.415Z,19.46
2023-06-16T23:43:58.845Z,19.40
2023-06-16T23:46:27.548Z,19.35
2023-06-16T23:48:55.092Z,19.32
2023-06-16T23:51:23.345Z,19.35
2023-06-16T23:53:52.145Z,19.38
2023-06-16T23:56:19.965Z,19.34
2023-06-16T23:58:49.674Z,19.29
